sensor_id;sensor_type;location;lat;lon;timestamp;P1;durP1;ratioP1;P2;durP2;ratioP2
14876;SDS011;69691;48.172;17.070;2023-06-22T00:01:10;17.20;;;9.43;;
14876;SDS011;69691;48.172;17.070;2023-06-22T00:03:36;16.90;;;10.15;;
14876;SDS011;69691;48.172;17.070;2023-06-22T00:06:02;23.60;;;10.27;;
14876;SDS011;69691;48.172;17.070;2023-06-22T00:08:27;18.40;;;9.85;;
14876;SDS011;69691;48.172;17.070;2023-06-22T00:10:53;16.55;;;10.25;;
14876;SDS011;69691;48.172;17.070;2023-06-22T00:13:19;16.20;;;10.07;;
14876;SDS011;69691;48.172;17.070;2023-06-22T00:15:45;24.27;;;10.77;;
14876;SDS011;69691;48.172;17.070;2023-06-22T00:18:11;19.48;;;9.27;;
14876;SDS011;69691;48.172;17.070;2023-06-22T00:20:38;18.65;;;9.95;;
14876;SDS011;69691;48.172;17.070;2023-06-22T00:23:05;17.52;;;10.07;;
14876;SDS011;69691;48.172;17.070;2023-06-22T00:25:37;14.70;;;9.18;;
14876;SDS011;69691;48.172;17.070;2023-06-22T00:28:06;24.88;;;10.27;;
14876;SDS011;69691;48.172;17.070;2023-06-22T00:30:34;19.23;;;10.15;;
14876;SDS011;69691;48.172;17.070;2023-06-22T00:33:00;18.67;;;11.05;;
14876;SDS011;69691;48.172;17.070;2023-06-22T00:35:26;22.42;;;10.93;;
14876;SDS011;69691;48.172;17.070;2023-06-22T00:37:55;21.45;;;11.15;;
14876;SDS011;69691;48.172;17.070;2023-06-22T00:40:32;12.77;;;9.32;;
14876;SDS011;69691;48.172;17.070;2023-06-22T00:42:59;24.88;;;10.60;;
14876;SDS011;69691;48.172;17.070;2023-06-22T00:45:25;16.88;;;10.05;;
14876;SDS011;69691;48.172;17.070;2023-06-22T00:47:52;20.27;;;10.13;;
14876;SDS011;69691;48.172;17.070;2023-06-22T00:50:22;15.10;;;9.80;;
14876;SDS011;69691;48.172;17.070;2023-06-22T00:52:51;17.35;;;10.23;;
14876;SDS011;69691;48.172;17.070;2023-06-22T00:55:24;17.17;;;10.25;;
14876;SDS011;69691;48.172;17.070;2023-06-22T00:57:51;17.73;;;9.52;;
14876;SDS011;69691;48.172;17.070;2023-06-22T01:00:22;23.83;;;10.20;;
14876;SDS011;69691;48.172;17.070;2023-06-22T01:02:50;17.23;;;9.18;;
14876;SDS011;69691;48.172;17.070;2023-06-22T01:05:19;16.45;;;8.63;;
14876;SDS011;69691;48.172;17.070;2023-06-22T01:10:24;14.60;;;10.38;;
14876;SDS011;69691;48.172;17.070;2023-06-22T01:13:23;21.25;;;10.15;;
14876;SDS011;69691;48.172;17.070;2023-06-22T01:16:08;22.98;;;10.85;;
14876;SDS011;69691;48.172;17.070;2023-06-22T01:21:14;18.27;;;10.02;;
14876;SDS011;69691;48.172;17.070;2023-06-22T01:30:11;17.15;;;11.52;;
14876;SDS011;69691;48.172;17.070;2023-06-22T01:32:41;22.38;;;11.38;;
14876;SDS011;69691;48.172;17.070;2023-06-22T01:35:08;19.40;;;11.60;;
14876;SDS011;69691;48.172;17.070;2023-06-22T01:37:36;19.30;;;10.52;;
14876;SDS011;69691;48.172;17.070;2023-06-22T01:40:03;24.13;;;10.93;;
14876;SDS011;69691;48.172;17.070;2023-06-22T01:42:33;20.08;;;9.65;;
14876;SDS011;69691;48.172;17.070;2023-06-22T01:45:01;16.67;;;9.77;;
14876;SDS011;69691;48.172;17.070;2023-06-22T01:47:29;16.98;;;10.10;;
14876;SDS011;69691;48.172;17.070;2023-06-22T01:49:55;16.13;;;10.07;;
14876;SDS011;69691;48.172;17.070;2023-06-22T01:52:21;15.90;;;9.38;;
14876;SDS011;69691;48.172;17.070;2023-06-22T01:54:48;15.88;;;10.90;;
14876;SDS011;69691;48.172;17.070;2023-06-22T01:57:14;16.10;;;9.93;;
14876;SDS011;69691;48.172;17.070;2023-06-22T02:02:27;16.02;;;10.15;;
14876;SDS011;69691;48.172;17.070;2023-06-22T02:05:04;19.13;;;10.18;;
14876;SDS011;69691;48.172;17.070;2023-06-22T02:07:33;19.15;;;10.23;;
14876;SDS011;69691;48.172;17.070;2023-06-22T02:10:07;17.95;;;9.90;;
14876;SDS011;69691;48.172;17.070;2023-06-22T02:12:37;20.48;;;10.70;;
14876;SDS011;69691;48.172;17.070;2023-06-22T02:15:04;18.58;;;9.77;;
14876;SDS011;69691;48.172;17.070;2023-06-22T02:17:31;12.77;;;9.38;;
14876;SDS011;69691;48.172;17.070;2023-06-22T02:20:00;14.93;;;8.43;;
14876;SDS011;69691;48.172;17.070;2023-06-22T02:22:34;18.35;;;9.63;;
14876;SDS011;69691;48.172;17.070;2023-06-22T02:25:01;14.43;;;8.73;;
14876;SDS011;69691;48.172;17.070;2023-06-22T02:27:27;19.42;;;10.05;;
14876;SDS011;69691;48.172;17.070;2023-06-22T02:29:53;18.65;;;10.55;;
14876;SDS011;69691;48.172;17.070;2023-06-22T02:32:19;19.13;;;10.18;;
14876;SDS011;69691;48.172;17.070;2023-06-22T02:34:45;18.85;;;9.70;;
14876;SDS011;69691;48.172;17.070;2023-06-22T02:37:15;19.60;;;9.48;;
14876;SDS011;69691;48.172;17.070;2023-06-22T02:39:41;15.05;;;9.43;;
14876;SDS011;69691;48.172;17.070;2023-06-22T02:42:07;21.05;;;8.90;;
14876;SDS011;69691;48.172;17.070;2023-06-22T02:44:33;18.27;;;10.10;;
14876;SDS011;69691;48.172;17.070;2023-06-22T02:46:59;12.27;;;8.68;;
14876;SDS011;69691;48.172;17.070;2023-06-22T02:49:24;12.90;;;8.13;;
14876;SDS011;69691;48.172;17.070;2023-06-22T02:51:51;19.17;;;9.15;;
14876;SDS011;69691;48.172;17.070;2023-06-22T02:54:19;16.52;;;8.45;;
14876;SDS011;69691;48.172;17.070;2023-06-22T02:56:47;14.10;;;8.88;;
14876;SDS011;69691;48.172;17.070;2023-06-22T02:59:13;15.98;;;9.02;;
14876;SDS011;69691;48.172;17.070;2023-06-22T03:01:39;15.30;;;8.85;;
14876;SDS011;69691;48.172;17.070;2023-06-22T03:04:12;14.38;;;9.15;;
14876;SDS011;69691;48.172;17.070;2023-06-22T03:06:38;15.77;;;8.45;;
14876;SDS011;69691;48.172;17.070;2023-06-22T03:09:07;16.52;;;8.50;;
14876;SDS011;69691;48.172;17.070;2023-06-22T03:11:35;14.30;;;7.82;;
14876;SDS011;69691;48.172;17.070;2023-06-22T03:14:00;11.43;;;7.55;;
14876;SDS011;69691;48.172;17.070;2023-06-22T03:16:27;13.23;;;7.80;;
14876;SDS011;69691;48.172;17.070;2023-06-22T03:18:55;17.25;;;7.43;;
14876;SDS011;69691;48.172;17.070;2023-06-22T03:21:22;13.30;;;7.60;;
14876;SDS011;69691;48.172;17.070;2023-06-22T03:23:48;21.20;;;8.70;;
14876;SDS011;69691;48.172;17.070;2023-06-22T03:26:16;12.05;;;7.80;;
14876;SDS011;69691;48.172;17.070;2023-06-22T03:28:44;21.33;;;7.90;;
14876;SDS011;69691;48.172;17.070;2023-06-22T03:31:10;11.48;;;7.80;;
14876;SDS011;69691;48.172;17.070;2023-06-22T03:33:39;18.15;;;7.60;;
14876;SDS011;69691;48.172;17.070;2023-06-22T03:36:04;15.63;;;7.40;;
14876;SDS011;69691;48.172;17.070;2023-06-22T03:38:31;15.55;;;7.88;;
14876;SDS011;69691;48.172;17.070;2023-06-22T03:40:57;13.75;;;7.13;;
14876;SDS011;69691;48.172;17.070;2023-06-22T03:43:24;12.52;;;7.20;;
14876;SDS011;69691;48.172;17.070;2023-06-22T03:45:50;15.93;;;7.03;;
14876;SDS011;69691;48.172;17.070;2023-06-22T03:48:16;13.20;;;7.07;;
14876;SDS011;69691;48.172;17.070;2023-06-22T03:50:42;13.70;;;7.35;;
14876;SDS011;69691;48.172;17.070;2023-06-22T03:53:09;14.15;;;7.38;;
14876;SDS011;69691;48.172;17.070;2023-06-22T03:55:36;15.65;;;7.80;;
14876;SDS011;69691;48.172;17.070;2023-06-22T03:58:01;16.25;;;7.15;;
14876;SDS011;69691;48.172;17.070;2023-06-22T04:00:31;9.40;;;6.78;;
14876;SDS011;69691;48.172;17.070;2023-06-22T04:02:57;14.70;;;6.97;;
14876;SDS011;69691;48.172;17.070;2023-06-22T04:05:23;11.77;;;6.78;;
14876;SDS011;69691;48.172;17.070;2023-06-22T04:07:49;14.25;;;6.78;;
14876;SDS011;69691;48.172;17.070;2023-06-22T04:10:15;11.38;;;6.32;;
14876;SDS011;69691;48.172;17.070;2023-06-22T04:12:41;15.05;;;6.60;;
14876;SDS011;69691;48.172;17.070;2023-06-22T04:15:07;14.07;;;7.22;;
14876;SDS011;69691;48.172;17.070;2023-06-22T04:17:33;13.32;;;7.45;;
14876;SDS011;69691;48.172;17.070;2023-06-22T04:19:59;11.48;;;7.78;;
14876;SDS011;69691;48.172;17.070;2023-06-22T04:22:25;16.00;;;7.72;;
14876;SDS011;69691;48.172;17.070;2023-06-22T04:24:51;13.60;;;7.63;;
14876;SDS011;69691;48.172;17.070;2023-06-22T04:27:17;18.83;;;6.82;;
14876;SDS011;69691;48.172;17.070;2023-06-22T04:29:45;13.30;;;6.95;;
14876;SDS011;69691;48.172;17.070;2023-06-22T04:32:14;14.13;;;7.18;;
14876;SDS011;69691;48.172;17.070;2023-06-22T04:34:42;14.32;;;6.47;;
14876;SDS011;69691;48.172;17.070;2023-06-22T04:37:09;16.55;;;7.38;;
14876;SDS011;69691;48.172;17.070;2023-06-22T04:39:41;9.93;;;7.10;;
14876;SDS011;69691;48.172;17.070;2023-06-22T04:42:08;16.65;;;6.72;;
14876;SDS011;69691;48.172;17.070;2023-06-22T04:44:34;11.82;;;6.47;;
14876;SDS011;69691;48.172;17.070;2023-06-22T04:47:00;12.50;;;7.35;;
14876;SDS011;69691;48.172;17.070;2023-06-22T04:49:29;20.60;;;7.13;;
14876;SDS011;69691;48.172;17.070;2023-06-22T04:52:00;10.23;;;6.70;;
14876;SDS011;69691;48.172;17.070;2023-06-22T04:54:27;14.18;;;7.90;;
14876;SDS011;69691;48.172;17.070;2023-06-22T04:56:54;9.98;;;6.38;;
14876;SDS011;69691;48.172;17.070;2023-06-22T04:59:23;16.00;;;7.10;;
14876;SDS011;69691;48.172;17.070;2023-06-22T05:01:58;9.45;;;6.35;;
14876;SDS011;69691;48.172;17.070;2023-06-22T05:04:26;9.30;;;6.25;;
14876;SDS011;69691;48.172;17.070;2023-06-22T05:06:56;14.00;;;6.57;;
14876;SDS011;69691;48.172;17.070;2023-06-22T05:09:23;9.98;;;5.63;;
14876;SDS011;69691;48.172;17.070;2023-06-22T05:11:52;8.40;;;6.03;;
14876;SDS011;69691;48.172;17.070;2023-06-22T05:14:18;9.07;;;6.57;;
14876;SDS011;69691;48.172;17.070;2023-06-22T05:16:45;10.52;;;6.43;;
14876;SDS011;69691;48.172;17.070;2023-06-22T05:19:12;14.63;;;6.47;;
14876;SDS011;69691;48.172;17.070;2023-06-22T05:21:38;15.25;;;9.00;;
14876;SDS011;69691;48.172;17.070;2023-06-22T05:24:04;13.38;;;6.55;;
14876;SDS011;69691;48.172;17.070;2023-06-22T05:26:31;17.23;;;6.95;;
14876;SDS011;69691;48.172;17.070;2023-06-22T05:28:58;10.40;;;5.47;;
14876;SDS011;69691;48.172;17.070;2023-06-22T05:31:26;11.50;;;5.43;;
14876;SDS011;69691;48.172;17.070;2023-06-22T05:33:52;11.70;;;5.40;;
14876;SDS011;69691;48.172;17.070;2023-06-22T05:36:21;14.70;;;5.38;;
14876;SDS011;69691;48.172;17.070;2023-06-22T05:38:50;9.27;;;5.70;;
14876;SDS011;69691;48.172;17.070;2023-06-22T05:41:17;10.13;;;5.10;;
14876;SDS011;69691;48.172;17.070;2023-06-22T05:43:43;10.45;;;5.60;;
14876;SDS011;69691;48.172;17.070;2023-06-22T05:46:08;10.35;;;5.97;;
14876;SDS011;69691;48.172;17.070;2023-06-22T05:48:34;8.20;;;4.97;;
14876;SDS011;69691;48.172;17.070;2023-06-22T05:51:00;8.98;;;5.35;;
14876;SDS011;69691;48.172;17.070;2023-06-22T05:53:26;11.95;;;5.32;;
14876;SDS011;69691;48.172;17.070;2023-06-22T05:55:52;9.68;;;5.70;;
14876;SDS011;69691;48.172;17.070;2023-06-22T05:58:18;14.70;;;8.68;;
14876;SDS011;69691;48.172;17.070;2023-06-22T06:00:44;8.13;;;6.32;;
14876;SDS011;69691;48.172;17.070;2023-06-22T06:03:11;12.93;;;10.05;;
14876;SDS011;69691;48.172;17.070;2023-06-22T06:05:37;13.95;;;9.00;;
14876;SDS011;69691;48.172;17.070;2023-06-22T06:08:04;13.15;;;8.80;;
14876;SDS011;69691;48.172;17.070;2023-06-22T06:10:31;19.70;;;8.45;;
14876;SDS011;69691;48.172;17.070;2023-06-22T06:12:58;12.25;;;6.60;;
14876;SDS011;69691;48.172;17.070;2023-06-22T06:15:27;13.70;;;6.82;;
14876;SDS011;69691;48.172;17.070;2023-06-22T06:17:54;10.82;;;6.20;;
14876;SDS011;69691;48.172;17.070;2023-06-22T06:20:21;14.98;;;7.32;;
14876;SDS011;69691;48.172;17.070;2023-06-22T06:22:48;9.20;;;6.88;;
14876;SDS011;69691;48.172;17.070;2023-06-22T06:25:15;15.63;;;7.45;;
14876;SDS011;69691;48.172;17.070;2023-06-22T06:27:42;11.45;;;6.75;;
14876;SDS011;69691;48.172;17.070;2023-06-22T06:30:13;14.45;;;6.82;;
14876;SDS011;69691;48.172;17.070;2023-06-22T06:32:42;15.75;;;5.90;;
14876;SDS011;69691;48.172;17.070;2023-06-22T06:35:11;13.80;;;5.95;;
14876;SDS011;69691;48.172;17.070;2023-06-22T06:37:39;10.85;;;5.90;;
14876;SDS011;69691;48.172;17.070;2023-06-22T06:40:08;14.02;;;6.22;;
14876;SDS011;69691;48.172;17.070;2023-06-22T06:42:45;19.13;;;5.95;;
14876;SDS011;69691;48.172;17.070;2023-06-22T06:45:22;11.90;;;6.10;;
14876;SDS011;69691;48.172;17.070;2023-06-22T06:47:51;14.45;;;6.60;;
14876;SDS011;69691;48.172;17.070;2023-06-22T06:50:17;15.52;;;7.45;;
14876;SDS011;69691;48.172;17.070;2023-06-22T06:52:44;16.77;;;6.80;;
14876;SDS011;69691;48.172;17.070;2023-06-22T06:55:10;13.95;;;6.40;;
14876;SDS011;69691;48.172;17.070;2023-06-22T06:57:39;17.30;;;7.13;;
14876;SDS011;69691;48.172;17.070;2023-06-22T07:00:10;17.50;;;8.65;;
14876;SDS011;69691;48.172;17.070;2023-06-22T07:02:42;15.32;;;8.10;;
14876;SDS011;69691;48.172;17.070;2023-06-22T07:05:09;17.05;;;8.48;;
14876;SDS011;69691;48.172;17.070;2023-06-22T07:07:37;17.20;;;10.20;;
14876;SDS011;69691;48.172;17.070;2023-06-22T07:10:03;15.75;;;8.95;;
14876;SDS011;69691;48.172;17.070;2023-06-22T07:12:33;17.55;;;8.98;;
14876;SDS011;69691;48.172;17.070;2023-06-22T07:15:05;18.50;;;8.15;;
14876;SDS011;69691;48.172;17.070;2023-06-22T07:17:36;15.15;;;7.70;;
14876;SDS011;69691;48.172;17.070;2023-06-22T07:20:03;18.85;;;8.02;;
14876;SDS011;69691;48.172;17.070;2023-06-22T07:22:39;16.60;;;6.45;;
14876;SDS011;69691;48.172;17.070;2023-06-22T07:25:07;20.63;;;6.50;;
14876;SDS011;69691;48.172;17.070;2023-06-22T07:27:38;17.88;;;6.88;;
14876;SDS011;69691;48.172;17.070;2023-06-22T07:30:08;11.73;;;6.05;;
14876;SDS011;69691;48.172;17.070;2023-06-22T07:32:35;16.23;;;5.68;;
14876;SDS011;69691;48.172;17.070;2023-06-22T07:35:01;15.90;;;6.32;;
14876;SDS011;69691;48.172;17.070;2023-06-22T07:37:29;12.60;;;6.53;;
14876;SDS011;69691;48.172;17.070;2023-06-22T07:39:55;12.85;;;6.00;;
14876;SDS011;69691;48.172;17.070;2023-06-22T07:42:25;15.65;;;6.93;;
14876;SDS011;69691;48.172;17.070;2023-06-22T07:44:51;16.75;;;6.95;;
14876;SDS011;69691;48.172;17.070;2023-06-22T07:47:17;17.52;;;6.50;;
14876;SDS011;69691;48.172;17.070;2023-06-22T07:49:44;22.98;;;6.57;;
14876;SDS011;69691;48.172;17.070;2023-06-22T07:52:11;20.02;;;5.93;;
14876;SDS011;69691;48.172;17.070;2023-06-22T07:54:38;14.57;;;6.00;;
14876;SDS011;69691;48.172;17.070;2023-06-22T07:57:04;10.20;;;6.28;;
14876;SDS011;69691;48.172;17.070;2023-06-22T07:59:30;19.85;;;5.80;;
14876;SDS011;69691;48.172;17.070;2023-06-22T08:01:56;15.27;;;5.95;;
14876;SDS011;69691;48.172;17.070;2023-06-22T08:04:21;15.07;;;6.63;;
14876;SDS011;69691;48.172;17.070;2023-06-22T08:06:47;27.77;;;6.78;;
14876;SDS011;69691;48.172;17.070;2023-06-22T08:09:14;35.22;;;8.52;;
14876;SDS011;69691;48.172;17.070;2023-06-22T08:11:40;14.77;;;6.03;;
14876;SDS011;69691;48.172;17.070;2023-06-22T08:14:06;18.35;;;6.57;;
14876;SDS011;69691;48.172;17.070;2023-06-22T08:16:32;18.75;;;6.30;;
14876;SDS011;69691;48.172;17.070;2023-06-22T08:18:58;15.68;;;7.07;;
14876;SDS011;69691;48.172;17.070;2023-06-22T08:21:24;20.60;;;6.40;;
14876;SDS011;69691;48.172;17.070;2023-06-22T08:23:49;18.65;;;7.65;;
14876;SDS011;69691;48.172;17.070;2023-06-22T08:30:06;10.68;;;6.80;;
14876;SDS011;69691;48.172;17.070;2023-06-22T08:32:32;21.80;;;6.60;;
14876;SDS011;69691;48.172;17.070;2023-06-22T08:34:58;12.80;;;6.72;;
14876;SDS011;69691;48.172;17.070;2023-06-22T08:37:24;13.43;;;6.90;;
14876;SDS011;69691;48.172;17.070;2023-06-22T08:39:56;21.83;;;7.88;;
14876;SDS011;69691;48.172;17.070;2023-06-22T08:42:24;13.75;;;6.60;;
14876;SDS011;69691;48.172;17.070;2023-06-22T08:44:50;13.35;;;7.20;;
14876;SDS011;69691;48.172;17.070;2023-06-22T08:47:16;15.77;;;7.00;;
14876;SDS011;69691;48.172;17.070;2023-06-22T08:49:42;19.30;;;7.97;;
14876;SDS011;69691;48.172;17.070;2023-06-22T08:52:08;12.38;;;7.43;;
14876;SDS011;69691;48.172;17.070;2023-06-22T08:54:34;19.83;;;7.00;;
14876;SDS011;69691;48.172;17.070;2023-06-22T08:57:02;13.95;;;6.43;;
14876;SDS011;69691;48.172;17.070;2023-06-22T08:59:29;18.75;;;6.80;;
14876;SDS011;69691;48.172;17.070;2023-06-22T09:01:54;17.38;;;6.75;;
14876;SDS011;69691;48.172;17.070;2023-06-22T09:04:21;13.75;;;6.43;;
14876;SDS011;69691;48.172;17.070;2023-06-22T09:06:48;11.85;;;6.97;;
14876;SDS011;69691;48.172;17.070;2023-06-22T09:09:15;21.25;;;8.05;;
14876;SDS011;69691;48.172;17.070;2023-06-22T09:11:42;16.77;;;6.82;;
14876;SDS011;69691;48.172;17.070;2023-06-22T09:14:08;15.57;;;7.03;;
14876;SDS011;69691;48.172;17.070;2023-06-22T09:16:34;12.75;;;6.68;;
14876;SDS011;69691;48.172;17.070;2023-06-22T09:19:00;14.35;;;6.88;;
14876;SDS011;69691;48.172;17.070;2023-06-22T09:21:26;19.42;;;7.13;;
14876;SDS011;69691;48.172;17.070;2023-06-22T09:23:52;10.98;;;6.20;;
14876;SDS011;69691;48.172;17.070;2023-06-22T09:26:18;16.60;;;6.35;;
14876;SDS011;69691;48.172;17.070;2023-06-22T09:28:45;14.20;;;6.57;;
14876;SDS011;69691;48.172;17.070;2023-06-22T09:31:11;15.20;;;6.65;;
14876;SDS011;69691;48.172;17.070;2023-06-22T09:33:37;10.80;;;6.45;;
14876;SDS011;69691;48.172;17.070;2023-06-22T09:36:04;15.45;;;7.35;;
14876;SDS011;69691;48.172;17.070;2023-06-22T09:38:38;12.73;;;6.50;;
14876;SDS011;69691;48.172;17.070;2023-06-22T09:41:04;20.55;;;7.18;;
14876;SDS011;69691;48.172;17.070;2023-06-22T09:43:31;16.15;;;6.85;;
14876;SDS011;69691;48.172;17.070;2023-06-22T09:46:00;16.35;;;6.55;;
14876;SDS011;69691;48.172;17.070;2023-06-22T09:48:27;13.30;;;7.35;;
14876;SDS011;69691;48.172;17.070;2023-06-22T09:50:55;14.82;;;6.25;;
14876;SDS011;69691;48.172;17.070;2023-06-22T09:53:21;17.92;;;6.65;;
14876;SDS011;69691;48.172;17.070;2023-06-22T09:55:47;24.73;;;6.88;;
14876;SDS011;69691;48.172;17.070;2023-06-22T09:58:13;16.83;;;6.68;;
14876;SDS011;69691;48.172;17.070;2023-06-22T10:00:39;17.63;;;6.80;;
14876;SDS011;69691;48.172;17.070;2023-06-22T10:03:06;18.15;;;7.10;;
14876;SDS011;69691;48.172;17.070;2023-06-22T10:05:33;11.45;;;6.07;;
14876;SDS011;69691;48.172;17.070;2023-06-22T10:07:58;15.60;;;6.10;;
14876;SDS011;69691;48.172;17.070;2023-06-22T10:10:24;13.52;;;6.00;;
14876;SDS011;69691;48.172;17.070;2023-06-22T10:12:57;14.93;;;6.05;;
14876;SDS011;69691;48.172;17.070;2023-06-22T10:15:29;12.65;;;6.43;;
14876;SDS011;69691;48.172;17.070;2023-06-22T10:17:55;16.80;;;6.28;;
14876;SDS011;69691;48.172;17.070;2023-06-22T10:20:21;19.38;;;6.18;;
14876;SDS011;69691;48.172;17.070;2023-06-22T10:22:47;25.52;;;6.72;;
14876;SDS011;69691;48.172;17.070;2023-06-22T10:25:13;13.50;;;7.10;;
14876;SDS011;69691;48.172;17.070;2023-06-22T10:27:39;8.60;;;5.55;;
14876;SDS011;69691;48.172;17.070;2023-06-22T10:30:05;15.88;;;6.45;;
14876;SDS011;69691;48.172;17.070;2023-06-22T10:32:35;19.27;;;6.60;;
14876;SDS011;69691;48.172;17.070;2023-06-22T10:35:03;13.30;;;6.30;;
14876;SDS011;69691;48.172;17.070;2023-06-22T10:37:29;11.02;;;6.47;;
14876;SDS011;69691;48.172;17.070;2023-06-22T10:39:55;15.93;;;6.63;;
14876;SDS011;69691;48.172;17.070;2023-06-22T10:42:21;15.13;;;6.55;;
14876;SDS011;69691;48.172;17.070;2023-06-22T10:44:47;11.90;;;6.30;;
14876;SDS011;69691;48.172;17.070;2023-06-22T10:47:12;16.90;;;6.53;;
14876;SDS011;69691;48.172;17.070;2023-06-22T10:49:38;13.95;;;6.57;;
14876;SDS011;69691;48.172;17.070;2023-06-22T10:52:06;14.60;;;6.13;;
14876;SDS011;69691;48.172;17.070;2023-06-22T10:54:33;10.73;;;6.30;;
14876;SDS011;69691;48.172;17.070;2023-06-22T10:57:00;14.07;;;6.90;;
14876;SDS011;69691;48.172;17.070;2023-06-22T10:59:27;14.93;;;6.47;;
14876;SDS011;69691;48.172;17.070;2023-06-22T11:01:57;14.55;;;6.32;;
14876;SDS011;69691;48.172;17.070;2023-06-22T11:04:24;19.58;;;7.07;;
14876;SDS011;69691;48.172;17.070;2023-06-22T11:06:50;12.32;;;5.60;;
14876;SDS011;69691;48.172;17.070;2023-06-22T11:12:35;11.60;;;6.75;;
14876;SDS011;69691;48.172;17.070;2023-06-22T11:15:01;12.23;;;6.35;;
14876;SDS011;69691;48.172;17.070;2023-06-22T11:17:27;15.88;;;6.63;;
14876;SDS011;69691;48.172;17.070;2023-06-22T11:19:53;15.63;;;6.47;;
14876;SDS011;69691;48.172;17.070;2023-06-22T11:22:18;12.75;;;6.20;;
14876;SDS011;69691;48.172;17.070;2023-06-22T11:24:44;15.43;;;7.10;;
14876;SDS011;69691;48.172;17.070;2023-06-22T11:27:10;12.15;;;6.18;;
14876;SDS011;69691;48.172;17.070;2023-06-22T11:29:36;13.80;;;6.45;;
14876;SDS011;69691;48.172;17.070;2023-06-22T11:32:03;14.07;;;6.45;;
14876;SDS011;69691;48.172;17.070;2023-06-22T11:34:31;13.05;;;5.88;;
14876;SDS011;69691;48.172;17.070;2023-06-22T11:36:57;13.98;;;5.60;;
14876;SDS011;69691;48.172;17.070;2023-06-22T11:39:23;14.10;;;6.32;;
14876;SDS011;69691;48.172;17.070;2023-06-22T11:41:49;14.73;;;6.93;;
14876;SDS011;69691;48.172;17.070;2023-06-22T11:44:14;19.88;;;10.23;;
14876;SDS011;69691;48.172;17.070;2023-06-22T11:46:40;16.20;;;8.95;;
14876;SDS011;69691;48.172;17.070;2023-06-22T11:49:06;20.20;;;9.35;;
14876;SDS011;69691;48.172;17.070;2023-06-22T11:51:33;14.93;;;7.93;;
14876;SDS011;69691;48.172;17.070;2023-06-22T11:53:59;16.77;;;6.80;;
14876;SDS011;69691;48.172;17.070;2023-06-22T11:56:24;17.80;;;10.05;;
14876;SDS011;69691;48.172;17.070;2023-06-22T11:58:50;19.20;;;11.23;;
14876;SDS011;69691;48.172;17.070;2023-06-22T12:01:16;21.27;;;11.30;;
14876;SDS011;69691;48.172;17.070;2023-06-22T12:03:42;18.35;;;11.60;;
14876;SDS011;69691;48.172;17.070;2023-06-22T12:06:09;14.43;;;9.13;;
14876;SDS011;69691;48.172;17.070;2023-06-22T12:08:35;11.00;;;6.63;;
14876;SDS011;69691;48.172;17.070;2023-06-22T12:11:00;17.45;;;7.68;;
14876;SDS011;69691;48.172;17.070;2023-06-22T12:13:26;14.77;;;7.45;;
14876;SDS011;69691;48.172;17.070;2023-06-22T12:15:52;17.48;;;9.35;;
14876;SDS011;69691;48.172;17.070;2023-06-22T12:18:18;13.32;;;9.05;;
14876;SDS011;69691;48.172;17.070;2023-06-22T12:20:46;15.13;;;9.00;;
14876;SDS011;69691;48.172;17.070;2023-06-22T12:23:12;15.35;;;8.02;;
14876;SDS011;69691;48.172;17.070;2023-06-22T12:25:38;21.70;;;9.25;;
14876;SDS011;69691;48.172;17.070;2023-06-22T12:28:04;17.05;;;8.80;;
14876;SDS011;69691;48.172;17.070;2023-06-22T12:30:30;16.35;;;9.07;;
14876;SDS011;69691;48.172;17.070;2023-06-22T12:32:58;18.67;;;10.07;;
14876;SDS011;69691;48.172;17.070;2023-06-22T12:35:24;21.60;;;10.25;;
14876;SDS011;69691;48.172;17.070;2023-06-22T12:37:50;14.90;;;9.23;;
14876;SDS011;69691;48.172;17.070;2023-06-22T12:40:15;17.63;;;9.13;;
14876;SDS011;69691;48.172;17.070;2023-06-22T12:42:41;21.70;;;9.75;;
14876;SDS011;69691;48.172;17.070;2023-06-22T12:45:07;15.48;;;9.40;;
14876;SDS011;69691;48.172;17.070;2023-06-22T12:47:34;19.33;;;10.52;;
14876;SDS011;69691;48.172;17.070;2023-06-22T12:50:00;15.93;;;9.85;;
14876;SDS011;69691;48.172;17.070;2023-06-22T12:52:26;31.67;;;12.00;;
14876;SDS011;69691;48.172;17.070;2023-06-22T12:54:52;17.30;;;10.77;;
14876;SDS011;69691;48.172;17.070;2023-06-22T12:57:19;18.45;;;9.93;;
14876;SDS011;69691;48.172;17.070;2023-06-22T12:59:45;21.83;;;9.82;;
14876;SDS011;69691;48.172;17.070;2023-06-22T13:02:11;14.18;;;9.10;;
14876;SDS011;69691;48.172;17.070;2023-06-22T13:04:37;17.52;;;10.82;;
14876;SDS011;69691;48.172;17.070;2023-06-22T13:07:02;19.23;;;10.30;;
14876;SDS011;69691;48.172;17.070;2023-06-22T13:09:28;23.38;;;10.48;;
14876;SDS011;69691;48.172;17.070;2023-06-22T13:11:54;21.52;;;9.93;;
14876;SDS011;69691;48.172;17.070;2023-06-22T13:14:20;17.08;;;10.15;;
14876;SDS011;69691;48.172;17.070;2023-06-22T13:16:46;17.80;;;8.23;;
14876;SDS011;69691;48.172;17.070;2023-06-22T13:19:12;20.77;;;9.25;;
14876;SDS011;69691;48.172;17.070;2023-06-22T13:21:37;20.15;;;9.32;;
14876;SDS011;69691;48.172;17.070;2023-06-22T13:24:03;19.90;;;9.27;;
14876;SDS011;69691;48.172;17.070;2023-06-22T13:26:31;22.20;;;10.40;;
14876;SDS011;69691;48.172;17.070;2023-06-22T13:28:57;16.75;;;8.98;;
14876;SDS011;69691;48.172;17.070;2023-06-22T13:31:23;19.23;;;8.65;;
14876;SDS011;69691;48.172;17.070;2023-06-22T13:33:49;12.35;;;7.20;;
14876;SDS011;69691;48.172;17.070;2023-06-22T13:36:17;14.52;;;7.25;;
14876;SDS011;69691;48.172;17.070;2023-06-22T13:38:44;15.55;;;7.00;;
14876;SDS011;69691;48.172;17.070;2023-06-22T13:41:09;18.67;;;7.88;;
14876;SDS011;69691;48.172;17.070;2023-06-22T13:43:35;14.18;;;6.63;;
14876;SDS011;69691;48.172;17.070;2023-06-22T13:46:01;20.52;;;7.10;;
14876;SDS011;69691;48.172;17.070;2023-06-22T13:48:27;14.27;;;7.05;;
14876;SDS011;69691;48.172;17.070;2023-06-22T13:50:53;15.02;;;6.75;;
14876;SDS011;69691;48.172;17.070;2023-06-22T13:53:19;13.88;;;7.95;;
14876;SDS011;69691;48.172;17.070;2023-06-22T13:55:45;14.82;;;6.88;;
14876;SDS011;69691;48.172;17.070;2023-06-22T13:58:12;12.40;;;6.57;;
14876;SDS011;69691;48.172;17.070;2023-06-22T14:00:38;16.98;;;8.15;;
14876;SDS011;69691;48.172;17.070;2023-06-22T14:03:04;16.70;;;7.38;;
14876;SDS011;69691;48.172;17.070;2023-06-22T14:05:30;21.40;;;7.97;;
14876;SDS011;69691;48.172;17.070;2023-06-22T14:07:56;17.70;;;7.45;;
14876;SDS011;69691;48.172;17.070;2023-06-22T14:10:22;14.63;;;6.90;;
14876;SDS011;69691;48.172;17.070;2023-06-22T14:12:48;16.42;;;7.97;;
14876;SDS011;69691;48.172;17.070;2023-06-22T14:15:14;15.30;;;8.23;;
14876;SDS011;69691;48.172;17.070;2023-06-22T14:17:39;16.73;;;8.00;;
14876;SDS011;69691;48.172;17.070;2023-06-22T14:20:05;15.07;;;8.10;;
14876;SDS011;69691;48.172;17.070;2023-06-22T14:22:33;19.48;;;7.63;;
14876;SDS011;69691;48.172;17.070;2023-06-22T14:28:05;19.10;;;7.40;;
14876;SDS011;69691;48.172;17.070;2023-06-22T14:30:31;19.38;;;7.40;;
14876;SDS011;69691;48.172;17.070;2023-06-22T14:32:57;19.52;;;7.15;;
14876;SDS011;69691;48.172;17.070;2023-06-22T14:35:23;14.82;;;7.22;;
14876;SDS011;69691;48.172;17.070;2023-06-22T14:37:49;16.02;;;7.80;;
14876;SDS011;69691;48.172;17.070;2023-06-22T14:40:15;13.05;;;7.30;;
14876;SDS011;69691;48.172;17.070;2023-06-22T14:42:41;15.80;;;7.05;;
14876;SDS011;69691;48.172;17.070;2023-06-22T14:45:07;13.48;;;7.75;;